GSVT2: Red River, Gainesville, TX

                                SHEF ID:       GSVT2     Red River near Gainesville, TX
STATION TYPE:
Regulating: Stage = 25.00, Flow = 52941

PRECIP STAGE RIV-FLOW BAT-LOAD
in ft cfs volt
Ccp-Rev Ccp-Rev Ccp-Rev Ccp-Rev
(America/Chicago)
08/11 00:00 0.00 6.10 777 12.49
08/11 01:00 0.00 6.10 777 12.49
08/11 02:00 0.00 6.11 782 12.49
08/11 03:00 0.00 6.12 787 12.49
08/11 04:00 0.00 6.12 787 12.49
08/11 05:00 0.00 6.11 782 12.49
08/11 06:00 0.00 6.11 782 12.49
08/11 07:00 0.00 6.12 787 12.41
08/11 08:00 0.00 6.11 782 12.49
08/11 09:00 0.00 6.09 772 12.97
08/11 10:00 0.00 6.09 772 13.37
08/11 11:00 0.00 #### 731597 13.29
08/11 12:00 0.00 6.08 767 13.29
08/11 13:00 0.00 6.06 754 13.29
08/11 14:00 0.00 6.04 741 13.29
08/11 15:00 0.00 6.04 741 13.21
08/11 16:00 0.00 6.03 735 13.29
08/11 17:00 0.00 6.02 729 13.21
08/11 18:00 0.00 6.01 722 13.21
08/11 19:00 0.00 5.99 710 13.21
08/11 20:00 0.00 5.99 710 12.89
08/11 21:00 0.00 5.97 698 12.65
08/11 22:00 0.00 5.97 698 12.57
08/11 23:00 0.00 5.96 691 12.57
Data processed at Tue 12Aug2025 04:32 GMT

Parsing this webpage?

Checkout our new Data API! CWMSDataAPI (CDA)

Timeseries IDs (TSIDs)

TSIDs used from left to right in the data table
GAIN.Precip-Inc.Total.1Hour.1Hour.Ccp-Rev
GAIN.Stage.Inst.1Hour.0.Ccp-Rev
GAIN.Flow.Inst.1Hour.0.Ccp-Rev
GAIN.Volt-Battery Load.Inst.1Hour.0.Ccp-Rev

                            

All information presented herein is the property of the government of the United States of America and may be revised or deleted at any time without prior notice. Dissemination of this information without the expressed written consent of the Public Affairs Office, Tulsa District U.S. Army Corps of Engineers is strictly prohibited. These data are gathered electronically and, as presented, have NOT undergone any form of quality control. These data are NOT guaranteed to be valid or correct.